Time;durP1;ratioP1;P1;durP2;ratioP2;P2;SDS_P1;SDS_P2;PMS_P1;PMS_P2;Temp;Humidity;BMP_temperature;BMP_pressure;BME280_temperature;BME280_humidity;BME280_pressure;Samples;Min_cycle;Max_cycle;Signal;HPM_P1;HPM_P2
2021/12/21 00:02:01;;;;;;;31.60;19.85;;;;;;;;;;5027753;28;20064;-83
2021/12/21 00:04:28;;;;;;;30.02;20.52;;;;;;;;;;5043716;28;20067;-83
2021/12/21 00:06:56;;;;;;;27.80;19.58;;;;;;;;;;5010421;28;20416;-83
2021/12/21 00:09:50;;;;;;;29.67;19.55;;;;;;;;;;5061785;28;20085;-83
2021/12/21 00:16:17;;;;;;;19.98;13.70;;;;;;;;;;5036928;28;20055;-83
2021/12/21 00:23:38;;;;;;;22.83;14.27;;;;;;;;;;5061555;28;20082;-83
2021/12/21 00:27:09;;;;;;;17.20;13.00;;;;;;;;;;5060058;28;20068;-83
2021/12/21 00:34:09;;;;;;;17.23;11.77;;;;;;;;;;4999049;28;20038;-83
2021/12/21 00:37:13;;;;;;;16.65;11.70;;;;;;;;;;4999473;28;20045;-83
2021/12/21 00:46:24;;;;;;;15.43;10.52;;;;;;;;;;5018057;28;20034;-82
2021/12/21 00:53:13;;;;;;;12.65;9.52;;;;;;;;;;4955170;28;20078;-83
2021/12/21 00:55:48;;;;;;;13.27;9.65;;;;;;;;;;4927967;29;20050;-83
2021/12/21 00:58:47;;;;;;;12.77;9.55;;;;;;;;;;4945158;28;20050;-83
2021/12/21 01:01:13;;;;;;;14.73;9.68;;;;;;;;;;5052879;28;20527;-82
2021/12/21 01:03:49;;;;;;;12.30;9.45;;;;;;;;;;5059383;28;20045;-83
2021/12/21 01:06:25;;;;;;;13.77;10.77;;;;;;;;;;5024827;28;20133;-82
2021/12/21 01:11:26;;;;;;;15.35;9.75;;;;;;;;;;5040427;28;20128;-82
2021/12/21 01:16:47;;;;;;;16.33;9.35;;;;;;;;;;5057756;28;20116;-83
2021/12/21 01:19:21;;;;;;;12.57;9.57;;;;;;;;;;5058015;28;20068;-82
2021/12/21 01:22:00;;;;;;;11.05;9.02;;;;;;;;;;5023336;28;20100;-82
2021/12/21 01:24:54;;;;;;;13.20;8.85;;;;;;;;;;5057487;28;20071;-82
2021/12/21 01:27:31;;;;;;;13.52;8.70;;;;;;;;;;5056477;28;20048;-83
2021/12/21 01:30:11;;;;;;;11.30;7.15;;;;;;;;;;5057029;28;20100;-83
2021/12/21 01:32:57;;;;;;;12.48;8.40;;;;;;;;;;5056565;28;20044;-83
2021/12/21 01:40:51;;;;;;;12.75;8.23;;;;;;;;;;5036434;28;20045;-82
2021/12/21 01:51:21;;;;;;;12.13;9.02;;;;;;;;;;5061362;28;20047;-81
2021/12/21 01:53:47;;;;;;;10.48;8.27;;;;;;;;;;5021902;28;20063;-83
2021/12/21 01:56:13;;;;;;;13.15;8.88;;;;;;;;;;5038078;28;20064;-83
2021/12/21 01:58:40;;;;;;;8.88;7.50;;;;;;;;;;5021149;28;20076;-82
2021/12/21 02:01:07;;;;;;;11.40;8.38;;;;;;;;;;5037354;28;20048;-82
2021/12/21 02:03:33;;;;;;;13.50;8.00;;;;;;;;;;5036954;28;20099;-82
2021/12/21 02:05:59;;;;;;;17.23;9.23;;;;;;;;;;5020077;28;20045;-82
2021/12/21 02:08:25;;;;;;;12.38;8.10;;;;;;;;;;5036298;28;20044;-82
2021/12/21 02:10:51;;;;;;;12.60;9.15;;;;;;;;;;5035623;28;20045;-82
2021/12/21 02:13:17;;;;;;;10.82;8.18;;;;;;;;;;5034987;28;20044;-82
2021/12/21 02:15:43;;;;;;;11.05;7.97;;;;;;;;;;5050329;28;20057;-81
2021/12/21 02:20:58;;;;;;;17.35;11.65;;;;;;;;;;5040625;28;20136;-82
2021/12/21 02:23:33;;;;;;;12.98;10.75;;;;;;;;;;5034916;28;20563;-82
2021/12/21 02:26:17;;;;;;;14.70;10.55;;;;;;;;;;5034581;28;20128;-82
2021/12/21 02:31:09;;;;;;;17.50;11.20;;;;;;;;;;5041263;28;20045;-82
2021/12/21 02:33:36;;;;;;;16.20;11.48;;;;;;;;;;5041298;28;20059;-82
2021/12/21 02:36:02;;;;;;;14.15;9.88;;;;;;;;;;5040909;28;20041;-82
2021/12/21 02:38:29;;;;;;;14.52;10.05;;;;;;;;;;5024935;28;20396;-82
2021/12/21 02:40:55;;;;;;;12.82;9.65;;;;;;;;;;5040860;28;20040;-82
2021/12/21 02:43:21;;;;;;;14.60;10.60;;;;;;;;;;5023749;28;20045;-82
2021/12/21 02:45:48;;;;;;;13.75;10.10;;;;;;;;;;5024057;28;20061;-82
2021/12/21 02:48:14;;;;;;;15.35;10.48;;;;;;;;;;5024345;28;20041;-82
2021/12/21 02:50:41;;;;;;;15.60;11.35;;;;;;;;;;5040517;28;20087;-82
2021/12/21 02:53:08;;;;;;;14.70;10.57;;;;;;;;;;5040362;28;20045;-82
2021/12/21 02:55:34;;;;;;;18.50;11.23;;;;;;;;;;5040348;28;20033;-82
2021/12/21 02:58:01;;;;;;;15.52;11.60;;;;;;;;;;5040719;28;20048;-82
2021/12/21 03:00:27;;;;;;;15.88;11.07;;;;;;;;;;5041234;28;20080;-82
2021/12/21 03:02:53;;;;;;;16.27;10.68;;;;;;;;;;5027580;28;20108;-82
2021/12/21 03:05:20;;;;;;;17.60;11.75;;;;;;;;;;5027917;28;20041;-82
2021/12/21 03:10:24;;;;;;;14.57;11.43;;;;;;;;;;5043951;28;20109;-82
2021/12/21 03:15:27;;;;;;;13.60;11.07;;;;;;;;;;5043503;28;20045;-83
2021/12/21 03:17:53;;;;;;;16.75;11.95;;;;;;;;;;5026648;28;20037;-84
2021/12/21 03:20:20;;;;;;;16.10;11.90;;;;;;;;;;5044435;28;20040;-83
2021/12/21 03:22:46;;;;;;;18.05;12.00;;;;;;;;;;5044538;28;20044;-83
2021/12/21 03:25:12;;;;;;;16.67;12.20;;;;;;;;;;5043725;28;20049;-82
2021/12/21 03:27:38;;;;;;;13.57;11.90;;;;;;;;;;5044284;28;20076;-82
2021/12/21 03:30:05;;;;;;;18.23;11.48;;;;;;;;;;5044004;28;20041;-83
2021/12/21 03:32:31;;;;;;;17.58;12.13;;;;;;;;;;5044168;28;20095;-83
2021/12/21 03:34:57;;;;;;;14.98;11.93;;;;;;;;;;5042988;28;20180;-81
2021/12/21 03:37:23;;;;;;;14.90;11.75;;;;;;;;;;5043336;28;20037;-84
2021/12/21 03:39:51;;;;;;;17.95;13.45;;;;;;;;;;5043361;28;20500;-81
2021/12/21 03:42:18;;;;;;;16.33;12.85;;;;;;;;;;5043266;28;20041;-81
2021/12/21 03:44:44;;;;;;;15.80;12.93;;;;;;;;;;5043472;28;20049;-81
2021/12/21 03:47:11;;;;;;;19.52;11.98;;;;;;;;;;5043348;28;20427;-81
2021/12/21 03:52:12;;;;;;;15.03;11.77;;;;;;;;;;5042934;28;20397;-81
2021/12/21 03:54:39;;;;;;;20.73;13.40;;;;;;;;;;5042591;28;20326;-81
2021/12/21 03:57:05;;;;;;;18.75;12.40;;;;;;;;;;5042087;28;20033;-81
2021/12/21 03:59:31;;;;;;;19.45;13.35;;;;;;;;;;5042478;28;20389;-82
2021/12/21 04:01:57;;;;;;;20.55;14.90;;;;;;;;;;5042286;28;20555;-81
2021/12/21 04:04:24;;;;;;;19.50;14.77;;;;;;;;;;5042046;28;20040;-82
2021/12/21 04:06:50;;;;;;;18.92;13.48;;;;;;;;;;5025894;28;20079;-82
2021/12/21 04:09:16;;;;;;;19.98;14.32;;;;;;;;;;5041817;28;20492;-81
2021/12/21 04:11:43;;;;;;;20.25;14.80;;;;;;;;;;5041393;28;20051;-81
2021/12/21 04:14:09;;;;;;;19.00;13.50;;;;;;;;;;5040785;28;20066;-82
2021/12/21 04:16:36;;;;;;;21.27;14.38;;;;;;;;;;5042104;28;20135;-82
2021/12/21 04:19:02;;;;;;;22.90;14.40;;;;;;;;;;5042120;28;20116;-82
2021/12/21 04:21:28;;;;;;;19.75;13.75;;;;;;;;;;5025808;28;20397;-82
2021/12/21 04:23:54;;;;;;;18.88;13.98;;;;;;;;;;5024064;28;20055;-81
2021/12/21 04:26:20;;;;;;;18.13;13.15;;;;;;;;;;5040990;28;20077;-82
2021/12/21 04:28:46;;;;;;;18.25;13.32;;;;;;;;;;5041235;28;20456;-82
2021/12/21 04:31:12;;;;;;;20.33;13.45;;;;;;;;;;5024601;28;20088;-82
2021/12/21 04:33:39;;;;;;;21.02;14.07;;;;;;;;;;5041026;28;20048;-81
2021/12/21 04:36:05;;;;;;;20.85;13.95;;;;;;;;;;5040120;28;20033;-81
2021/12/21 04:38:36;;;;;;;20.75;13.93;;;;;;;;;;5039849;28;20045;-81
2021/12/21 04:41:08;;;;;;;24.00;14.43;;;;;;;;;;5040289;28;20041;-81
2021/12/21 04:43:34;;;;;;;20.00;12.93;;;;;;;;;;5040608;28;20091;-82
2021/12/21 04:46:01;;;;;;;19.25;13.40;;;;;;;;;;5040384;28;20038;-82
2021/12/21 04:48:27;;;;;;;20.67;13.52;;;;;;;;;;5024842;28;20441;-81
2021/12/21 04:50:53;;;;;;;19.70;12.52;;;;;;;;;;5041613;28;20124;-83
2021/12/21 04:53:19;;;;;;;19.75;14.15;;;;;;;;;;5041471;28;20068;-82
2021/12/21 04:55:45;;;;;;;17.02;12.98;;;;;;;;;;5042166;28;20404;-84
2021/12/21 04:58:11;;;;;;;21.50;14.25;;;;;;;;;;5045198;28;20041;-83
2021/12/21 05:00:38;;;;;;;20.45;13.48;;;;;;;;;;5043343;28;20037;-83
2021/12/21 05:03:04;;;;;;;17.05;12.98;;;;;;;;;;5039283;28;20041;-82
2021/12/21 05:05:30;;;;;;;17.40;12.05;;;;;;;;;;5036973;28;20478;-82
2021/12/21 05:08:09;;;;;;;20.77;13.05;;;;;;;;;;5037654;28;20132;-82
2021/12/21 05:10:56;;;;;;;14.45;12.38;;;;;;;;;;5038564;28;20535;-83
2021/12/21 05:13:23;;;;;;;18.60;13.95;;;;;;;;;;5033371;28;20037;-81
2021/12/21 05:15:49;;;;;;;18.25;13.48;;;;;;;;;;5029048;28;20128;-82
2021/12/21 05:18:16;;;;;;;17.73;12.85;;;;;;;;;;5017459;28;20111;-82
2021/12/21 05:20:42;;;;;;;24.15;14.27;;;;;;;;;;5036127;28;20052;-82
2021/12/21 05:23:08;;;;;;;17.02;12.80;;;;;;;;;;5035957;28;20076;-82
2021/12/21 05:25:35;;;;;;;22.25;12.40;;;;;;;;;;5035400;28;20059;-81
2021/12/21 05:28:01;;;;;;;20.10;12.85;;;;;;;;;;5035541;28;20497;-82
2021/12/21 05:30:27;;;;;;;19.98;13.38;;;;;;;;;;5053631;28;20025;-81
2021/12/21 05:32:54;;;;;;;22.52;13.15;;;;;;;;;;5061807;28;20047;-79
2021/12/21 05:35:20;;;;;;;21.70;14.52;;;;;;;;;;5044036;28;20048;-82
2021/12/21 05:37:48;;;;;;;24.90;12.52;;;;;;;;;;5035892;28;20045;-82
2021/12/21 05:40:16;;;;;;;21.98;14.85;;;;;;;;;;5019330;28;20083;-82
2021/12/21 05:42:44;;;;;;;21.25;16.27;;;;;;;;;;5034939;28;20041;-82
2021/12/21 05:45:11;;;;;;;25.98;16.10;;;;;;;;;;5028630;28;20117;-82
2021/12/21 05:47:37;;;;;;;22.42;15.23;;;;;;;;;;5021160;28;20034;-82
2021/12/21 05:50:04;;;;;;;18.60;13.95;;;;;;;;;;5001632;28;20044;-82
2021/12/21 05:52:30;;;;;;;17.27;13.18;;;;;;;;;;5034581;28;20504;-82
2021/12/21 05:54:56;;;;;;;17.42;13.40;;;;;;;;;;5035034;28;20041;-84
2021/12/21 05:57:22;;;;;;;18.45;13.43;;;;;;;;;;5023509;28;20051;-82
2021/12/21 05:59:48;;;;;;;18.95;12.70;;;;;;;;;;5044552;28;20021;-81
2021/12/21 06:02:16;;;;;;;20.48;12.57;;;;;;;;;;5043975;28;20048;-84
2021/12/21 06:04:43;;;;;;;18.60;12.70;;;;;;;;;;5017792;28;20045;-84
2021/12/21 06:07:09;;;;;;;19.33;12.38;;;;;;;;;;5017650;28;20044;-84
2021/12/21 06:09:35;;;;;;;18.13;13.10;;;;;;;;;;5001711;28;20041;-84
2021/12/21 06:12:10;;;;;;;17.30;12.18;;;;;;;;;;5017899;28;20433;-84
2021/12/21 06:14:58;;;;;;;17.80;12.98;;;;;;;;;;5016953;28;20115;-83
2021/12/21 06:22:45;;;;;;;16.33;12.85;;;;;;;;;;5000867;28;20045;-85
2021/12/21 06:23:18;;;;;;;27.40;15.88;;;;;;;;;;5018513;28;20041;-84
2021/12/21 06:25:53;;;;;;;32.65;17.73;;;;;;;;;;5017283;28;20041;-83
2021/12/21 06:28:20;;;;;;;37.10;21.02;;;;;;;;;;5017231;28;20044;-84
2021/12/21 06:30:46;;;;;;;29.67;19.02;;;;;;;;;;5041012;28;20036;-83
2021/12/21 06:33:12;;;;;;;29.95;18.15;;;;;;;;;;5039427;28;20079;-87
2021/12/21 06:35:39;;;;;;;32.17;18.05;;;;;;;;;;5037824;28;20496;-82
2021/12/21 06:38:05;;;;;;;27.08;17.25;;;;;;;;;;5010290;28;20409;-83
2021/12/21 06:40:31;;;;;;;25.30;16.23;;;;;;;;;;5035216;28;20037;-83
2021/12/21 06:43:01;;;;;;;18.75;12.55;;;;;;;;;;5034626;28;20624;-83
2021/12/21 06:53:53;;;;;;;17.50;13.10;;;;;;;;;;4960077;28;20135;-83
2021/12/21 06:56:19;;;;;;;23.80;15.70;;;;;;;;;;5011253;28;20041;-83
2021/12/21 06:58:45;;;;;;;17.80;12.65;;;;;;;;;;5021022;28;20033;-83
2021/12/21 07:01:13;;;;;;;18.98;12.63;;;;;;;;;;5038867;28;20501;-83
2021/12/21 07:03:39;;;;;;;16.23;13.70;;;;;;;;;;5038105;28;20061;-83
2021/12/21 07:06:06;;;;;;;17.88;13.73;;;;;;;;;;5020797;28;20076;-83
2021/12/21 07:08:42;;;;;;;17.75;12.98;;;;;;;;;;5037773;28;20405;-83
2021/12/21 07:11:17;;;;;;;19.13;12.55;;;;;;;;;;5039112;28;20047;-83
2021/12/21 07:19:13;;;;;;;15.95;12.95;;;;;;;;;;5037922;28;20045;-83
2021/12/21 07:21:39;;;;;;;18.90;12.60;;;;;;;;;;5039186;28;20037;-83
2021/12/21 07:24:05;;;;;;;17.15;13.38;;;;;;;;;;5038346;28;20045;-83
2021/12/21 07:26:31;;;;;;;26.95;18.90;;;;;;;;;;5038543;28;20492;-83
2021/12/21 07:28:57;;;;;;;32.13;21.38;;;;;;;;;;5042837;28;20037;-83
2021/12/21 07:31:23;;;;;;;33.03;22.05;;;;;;;;;;5023989;28;20045;-82
2021/12/21 07:33:49;;;;;;;23.35;17.15;;;;;;;;;;5025702;28;20436;-83
2021/12/21 07:36:15;;;;;;;24.20;17.33;;;;;;;;;;5042554;28;20147;-83
2021/12/21 07:38:41;;;;;;;24.73;18.27;;;;;;;;;;5043502;28;20176;-83
2021/12/21 07:41:07;;;;;;;21.77;16.95;;;;;;;;;;5038631;28;20041;-83
2021/12/21 07:43:33;;;;;;;27.70;17.73;;;;;;;;;;5042311;28;20033;-83
2021/12/21 07:45:59;;;;;;;23.70;16.13;;;;;;;;;;5024918;28;20416;-83
2021/12/21 07:48:25;;;;;;;22.63;16.27;;;;;;;;;;5027313;28;20057;-82
2021/12/21 07:50:51;;;;;;;19.13;14.25;;;;;;;;;;5044854;28;20349;-83
2021/12/21 07:53:19;;;;;;;18.98;14.38;;;;;;;;;;5026749;28;20452;-83
2021/12/21 07:55:45;;;;;;;20.27;14.32;;;;;;;;;;5044281;28;20041;-83
2021/12/21 07:58:12;;;;;;;19.80;15.02;;;;;;;;;;5045782;28;20099;-83
2021/12/21 08:00:38;;;;;;;24.77;15.98;;;;;;;;;;5044526;28;20037;-83
2021/12/21 08:03:05;;;;;;;24.67;15.93;;;;;;;;;;5047019;28;20041;-83
2021/12/21 08:05:33;;;;;;;23.73;16.65;;;;;;;;;;5046798;28;20050;-82
2021/12/21 08:08:10;;;;;;;24.70;18.52;;;;;;;;;;5030398;28;20474;-83
2021/12/21 08:10:46;;;;;;;28.15;20.77;;;;;;;;;;5045048;28;20054;-83
2021/12/21 08:13:12;;;;;;;30.08;21.33;;;;;;;;;;5045055;28;20055;-83
2021/12/21 08:15:38;;;;;;;25.27;19.95;;;;;;;;;;5045392;28;20046;-84
2021/12/21 08:18:04;;;;;;;27.48;18.25;;;;;;;;;;5045409;28;20041;-83
2021/12/21 08:20:30;;;;;;;29.45;21.20;;;;;;;;;;5044529;28;20034;-83
2021/12/21 08:22:57;;;;;;;34.10;23.90;;;;;;;;;;5043933;28;20053;-83
2021/12/21 08:25:25;;;;;;;29.20;19.27;;;;;;;;;;5043794;28;20053;-83
2021/12/21 08:27:51;;;;;;;24.83;16.98;;;;;;;;;;5029186;28;20042;-83
2021/12/21 08:30:18;;;;;;;28.42;17.15;;;;;;;;;;5044981;28;20045;-83
2021/12/21 08:32:44;;;;;;;23.10;17.15;;;;;;;;;;5027485;28;20056;-83
2021/12/21 08:35:12;;;;;;;20.25;14.50;;;;;;;;;;5026142;28;20041;-82
2021/12/21 08:37:38;;;;;;;17.70;15.25;;;;;;;;;;5043763;28;20041;-82
2021/12/21 08:40:07;;;;;;;22.38;15.88;;;;;;;;;;5044224;28;20041;-82
2021/12/21 08:42:34;;;;;;;25.27;16.40;;;;;;;;;;5042936;28;20132;-82
2021/12/21 08:45:06;;;;;;;22.27;17.27;;;;;;;;;;5038407;28;20508;-82
2021/12/21 08:47:31;;;;;;;19.08;16.00;;;;;;;;;;5022357;28;20067;-82
2021/12/21 08:49:57;;;;;;;21.25;16.10;;;;;;;;;;5039764;28;20556;-82
2021/12/21 08:52:23;;;;;;;17.63;15.23;;;;;;;;;;5039458;28;20521;-83
2021/12/21 08:54:49;;;;;;;20.50;15.82;;;;;;;;;;5022948;28;20180;-82
2021/12/21 08:57:19;;;;;;;22.75;16.30;;;;;;;;;;5032914;28;20038;-82
2021/12/21 08:59:45;;;;;;;18.95;15.18;;;;;;;;;;5049947;28;20048;-82
2021/12/21 09:02:11;;;;;;;26.38;17.98;;;;;;;;;;5049871;28;20041;-82
2021/12/21 09:04:39;;;;;;;36.10;23.80;;;;;;;;;;5044533;28;20033;-82
2021/12/21 09:07:05;;;;;;;27.85;20.88;;;;;;;;;;5028096;28;20037;-83
2021/12/21 09:09:34;;;;;;;28.88;19.63;;;;;;;;;;5042261;28;20041;-82
2021/12/21 09:12:00;;;;;;;26.88;20.45;;;;;;;;;;5040746;28;20124;-82
2021/12/21 09:14:31;;;;;;;27.67;20.20;;;;;;;;;;5035020;28;20045;-82
2021/12/21 09:16:57;;;;;;;28.85;21.42;;;;;;;;;;5034991;28;20034;-81
2021/12/21 09:19:23;;;;;;;31.73;21.50;;;;;;;;;;5058179;28;20048;-83
2021/12/21 09:21:50;;;;;;;27.02;21.23;;;;;;;;;;5044672;28;20408;-82
2021/12/21 09:24:16;;;;;;;36.08;23.45;;;;;;;;;;5020080;28;20077;-83
2021/12/21 09:26:42;;;;;;;26.13;19.65;;;;;;;;;;5036851;28;20033;-83
2021/12/21 09:29:08;;;;;;;22.17;18.83;;;;;;;;;;5035245;28;20080;-83
2021/12/21 09:31:35;;;;;;;20.42;16.40;;;;;;;;;;5036116;28;20121;-83
2021/12/21 09:34:01;;;;;;;24.58;19.10;;;;;;;;;;5018273;28;20041;-83
2021/12/21 09:36:29;;;;;;;21.30;17.58;;;;;;;;;;5036173;28;20072;-83
2021/12/21 09:38:55;;;;;;;20.50;16.92;;;;;;;;;;5034346;28;20076;-83
2021/12/21 09:41:21;;;;;;;19.67;17.45;;;;;;;;;;5016893;28;20034;-83
2021/12/21 09:43:47;;;;;;;24.30;18.60;;;;;;;;;;5038457;28;20033;-81
2021/12/21 09:46:13;;;;;;;18.17;14.98;;;;;;;;;;5057637;28;20056;-82
2021/12/21 09:48:39;;;;;;;16.88;15.07;;;;;;;;;;5053898;28;20060;-83
2021/12/21 09:51:06;;;;;;;18.80;15.57;;;;;;;;;;5023937;28;20095;-83
2021/12/21 09:53:33;;;;;;;16.52;15.00;;;;;;;;;;5021555;28;20053;-84
2021/12/21 09:55:59;;;;;;;17.65;15.18;;;;;;;;;;5022794;28;20045;-84
2021/12/21 09:58:25;;;;;;;18.40;15.98;;;;;;;;;;5039412;28;20044;-84
2021/12/21 10:00:51;;;;;;;17.67;14.98;;;;;;;;;;5038168;28;20405;-84
2021/12/21 10:03:17;;;;;;;16.58;14.80;;;;;;;;;;5038451;28;20041;-84
2021/12/21 10:05:44;;;;;;;15.98;14.35;;;;;;;;;;5040692;28;20047;-84
2021/12/21 10:08:19;;;;;;;17.63;14.32;;;;;;;;;;5039776;28;20041;-81
2021/12/21 10:10:47;;;;;;;16.30;14.52;;;;;;;;;;5037686;28;20497;-82
2021/12/21 10:13:19;;;;;;;16.42;13.52;;;;;;;;;;5023387;28;20404;-83
2021/12/21 10:15:52;;;;;;;16.58;14.98;;;;;;;;;;5039609;28;20049;-83
2021/12/21 10:18:45;;;;;;;15.73;13.52;;;;;;;;;;5039523;28;20037;-83
2021/12/21 10:21:12;;;;;;;15.32;13.70;;;;;;;;;;5019343;28;20041;-83
2021/12/21 10:23:39;;;;;;;14.55;13.05;;;;;;;;;;5038860;28;20387;-83
2021/12/21 10:26:08;;;;;;;15.50;13.98;;;;;;;;;;5040067;28;20033;-83
2021/12/21 10:28:42;;;;;;;15.75;13.68;;;;;;;;;;5037058;28;20254;-83
2021/12/21 10:31:09;;;;;;;15.85;14.25;;;;;;;;;;5005145;28;20045;-83
2021/12/21 10:33:36;;;;;;;17.08;15.27;;;;;;;;;;5003988;28;20116;-83
2021/12/21 10:36:03;;;;;;;20.13;16.55;;;;;;;;;;5020466;28;20087;-83
2021/12/21 10:38:34;;;;;;;18.83;15.38;;;;;;;;;;5021912;28;20374;-82
2021/12/21 10:41:06;;;;;;;16.73;14.90;;;;;;;;;;5021673;28;20497;-83
2021/12/21 10:43:32;;;;;;;18.33;16.40;;;;;;;;;;5020090;28;20498;-83
2021/12/21 10:45:58;;;;;;;18.67;16.40;;;;;;;;;;5003518;28;20037;-84
2021/12/21 10:48:24;;;;;;;21.08;17.48;;;;;;;;;;5000139;28;20382;-82
2021/12/21 10:50:50;;;;;;;23.55;18.10;;;;;;;;;;5006451;28;20037;-83
2021/12/21 10:53:27;;;;;;;20.35;18.25;;;;;;;;;;5026917;28;20053;-83
2021/12/21 10:56:00;;;;;;;17.55;15.80;;;;;;;;;;5008856;28;20081;-83
2021/12/21 10:58:27;;;;;;;18.98;17.08;;;;;;;;;;5024002;28;20040;-83
2021/12/21 11:00:55;;;;;;;19.35;17.30;;;;;;;;;;5024525;28;20037;-83
2021/12/21 11:03:40;;;;;;;16.17;14.52;;;;;;;;;;5007345;28;20041;-83
2021/12/21 11:06:18;;;;;;;19.10;15.20;;;;;;;;;;5024994;28;20042;-83
2021/12/21 11:08:45;;;;;;;15.63;13.82;;;;;;;;;;5024305;28;20041;-83
2021/12/21 11:11:32;;;;;;;17.75;16.15;;;;;;;;;;5022420;28;20044;-83
2021/12/21 11:14:08;;;;;;;17.00;15.30;;;;;;;;;;5021155;28;20107;-84
2021/12/21 11:16:51;;;;;;;17.30;15.50;;;;;;;;;;5004402;28;20069;-84
2021/12/21 11:19:18;;;;;;;17.17;15.57;;;;;;;;;;5020188;28;20072;-84
2021/12/21 11:21:45;;;;;;;16.92;15.23;;;;;;;;;;5021263;28;20461;-84
2021/12/21 11:24:13;;;;;;;20.63;16.38;;;;;;;;;;5024517;28;20045;-84
2021/12/21 11:26:39;;;;;;;17.42;15.60;;;;;;;;;;5023614;28;20041;-84
2021/12/21 11:29:08;;;;;;;16.77;15.07;;;;;;;;;;5007131;28;20072;-83
2021/12/21 11:31:46;;;;;;;16.05;14.60;;;;;;;;;;5008121;28;20065;-83
2021/12/21 11:34:15;;;;;;;17.45;14.95;;;;;;;;;;5022629;28;20050;-84
2021/12/21 11:39:34;;;;;;;17.45;15.45;;;;;;;;;;5020745;28;20045;-85
2021/12/21 11:42:01;;;;;;;15.80;14.30;;;;;;;;;;5020877;28;20041;-84
2021/12/21 11:44:27;;;;;;;16.85;14.95;;;;;;;;;;5020919;28;20046;-85
2021/12/21 11:46:58;;;;;;;16.52;14.88;;;;;;;;;;5006466;28;20055;-84
2021/12/21 11:49:29;;;;;;;18.80;16.90;;;;;;;;;;5004283;28;20037;-84
2021/12/21 11:52:05;;;;;;;16.20;14.48;;;;;;;;;;5021070;28;20053;-85
2021/12/21 11:54:41;;;;;;;15.50;13.82;;;;;;;;;;5021643;28;20041;-84
2021/12/21 11:57:07;;;;;;;17.80;13.55;;;;;;;;;;5004230;28;20038;-84
2021/12/21 11:59:33;;;;;;;15.77;13.30;;;;;;;;;;5022532;28;20045;-84
2021/12/21 12:02:01;;;;;;;17.10;12.77;;;;;;;;;;5024137;28;20041;-84
2021/12/21 12:04:27;;;;;;;14.55;13.07;;;;;;;;;;5026380;28;20042;-84
2021/12/21 12:06:55;;;;;;;15.90;13.82;;;;;;;;;;5025030;28;20045;-84
2021/12/21 12:09:29;;;;;;;16.80;14.27;;;;;;;;;;5008145;28;20041;-85
2021/12/21 12:12:09;;;;;;;18.95;15.02;;;;;;;;;;5026663;28;20088;-85
2021/12/21 12:14:37;;;;;;;17.10;14.35;;;;;;;;;;5025018;28;20105;-84
2021/12/21 12:17:10;;;;;;;18.95;15.65;;;;;;;;;;5010511;28;20037;-84
2021/12/21 12:19:38;;;;;;;18.77;14.90;;;;;;;;;;5023756;28;20114;-86
2021/12/21 12:22:05;;;;;;;16.45;14.75;;;;;;;;;;5025777;28;20065;-85
2021/12/21 12:24:35;;;;;;;15.98;14.32;;;;;;;;;;5014013;28;20092;-85
2021/12/21 12:27:22;;;;;;;18.77;15.02;;;;;;;;;;5033060;28;20069;-83
2021/12/21 12:29:50;;;;;;;20.17;16.13;;;;;;;;;;5021559;28;20052;-84
2021/12/21 12:32:16;;;;;;;15.88;13.77;;;;;;;;;;5023903;28;20398;-83
2021/12/21 12:34:43;;;;;;;20.02;14.88;;;;;;;;;;5021459;28;20572;-83
2021/12/21 12:37:17;;;;;;;19.20;14.50;;;;;;;;;;5021799;28;20120;-83
2021/12/21 12:39:45;;;;;;;17.92;14.07;;;;;;;;;;5019451;28;20037;-83
2021/12/21 12:42:22;;;;;;;16.30;14.60;;;;;;;;;;5018461;28;20033;-83
2021/12/21 12:44:55;;;;;;;18.98;14.45;;;;;;;;;;5002601;28;20420;-83
2021/12/21 12:47:26;;;;;;;19.65;14.98;;;;;;;;;;5018508;28;20056;-83
2021/12/21 12:49:54;;;;;;;18.38;14.77;;;;;;;;;;5000727;28;20128;-84
2021/12/21 12:52:24;;;;;;;19.70;16.58;;;;;;;;;;5000380;28;20095;-84
2021/12/21 12:54:55;;;;;;;20.50;16.10;;;;;;;;;;5015930;28;20052;-84
2021/12/21 12:57:44;;;;;;;21.52;16.27;;;;;;;;;;5016534;28;20441;-85
2021/12/21 13:00:21;;;;;;;18.45;14.57;;;;;;;;;;5035836;28;20030;-85
2021/12/21 13:03:02;;;;;;;19.58;16.33;;;;;;;;;;5025274;28;20029;-87
2021/12/21 13:05:35;;;;;;;19.02;16.20;;;;;;;;;;5017668;28;20373;-84
2021/12/21 13:08:07;;;;;;;19.50;15.88;;;;;;;;;;5001701;28;20050;-85
2021/12/21 13:10:35;;;;;;;21.80;15.77;;;;;;;;;;5006057;28;20128;-84
2021/12/21 13:13:01;;;;;;;16.67;14.30;;;;;;;;;;5020192;28;20045;-87
2021/12/21 13:15:34;;;;;;;20.05;15.60;;;;;;;;;;5004074;28;20041;-84
2021/12/21 13:18:01;;;;;;;17.33;15.45;;;;;;;;;;5019339;28;20038;-84
2021/12/21 13:20:27;;;;;;;19.13;14.25;;;;;;;;;;5017887;28;20044;-84
2021/12/21 13:22:53;;;;;;;15.70;14.07;;;;;;;;;;5001795;28;20042;-84
2021/12/21 13:25:19;;;;;;;15.95;14.13;;;;;;;;;;5002486;28;20468;-84
2021/12/21 13:27:45;;;;;;;22.48;17.25;;;;;;;;;;5014920;28;20040;-86
2021/12/21 13:30:11;;;;;;;20.10;16.60;;;;;;;;;;5040904;28;20052;-84
2021/12/21 13:32:37;;;;;;;25.30;19.05;;;;;;;;;;5015097;28;20049;-84
2021/12/21 13:35:04;;;;;;;18.27;15.98;;;;;;;;;;5025898;28;20069;-84
2021/12/21 13:37:30;;;;;;;19.15;15.65;;;;;;;;;;5014720;28;20041;-84
2021/12/21 13:39:57;;;;;;;20.25;15.95;;;;;;;;;;5027768;28;20569;-84
2021/12/21 13:42:25;;;;;;;20.08;15.60;;;;;;;;;;5027811;28;20060;-83
2021/12/21 13:44:56;;;;;;;17.27;15.48;;;;;;;;;;5045232;28;20040;-84
2021/12/21 13:47:37;;;;;;;16.25;14.52;;;;;;;;;;5029077;28;20488;-85
2021/12/21 13:50:06;;;;;;;16.70;13.98;;;;;;;;;;5028992;28;20037;-84
2021/12/21 13:52:33;;;;;;;16.27;13.00;;;;;;;;;;5045872;28;20508;-85
2021/12/21 13:54:59;;;;;;;17.50;13.15;;;;;;;;;;5028684;28;20076;-84
2021/12/21 13:57:26;;;;;;;14.45;12.73;;;;;;;;;;5030872;28;20040;-85
2021/12/21 13:59:53;;;;;;;17.42;14.38;;;;;;;;;;5038426;28;20049;-86
2021/12/21 14:02:31;;;;;;;15.00;13.40;;;;;;;;;;5043931;28;20052;-85
2021/12/21 14:05:02;;;;;;;16.83;13.73;;;;;;;;;;5050121;28;20037;-84
2021/12/21 14:07:31;;;;;;;17.98;13.95;;;;;;;;;;5022182;28;20096;-84
2021/12/21 14:10:09;;;;;;;15.07;13.32;;;;;;;;;;5041429;28;20072;-84
2021/12/21 14:12:35;;;;;;;15.35;13.55;;;;;;;;;;5026258;28;20041;-84
2021/12/21 14:15:01;;;;;;;17.25;13.82;;;;;;;;;;5044038;28;20047;-84
2021/12/21 14:17:28;;;;;;;16.17;13.68;;;;;;;;;;5027451;28;20041;-84
2021/12/21 14:19:55;;;;;;;14.98;13.52;;;;;;;;;;5026983;28;20040;-84
2021/12/21 14:22:21;;;;;;;17.55;14.73;;;;;;;;;;5027985;28;20040;-84
2021/12/21 14:24:49;;;;;;;14.00;12.63;;;;;;;;;;5028268;28;20049;-84
2021/12/21 14:27:16;;;;;;;15.45;13.85;;;;;;;;;;5044397;28;20056;-84
2021/12/21 14:29:43;;;;;;;17.05;14.13;;;;;;;;;;5045736;28;20044;-85
2021/12/21 14:34:40;;;;;;;16.48;14.68;;;;;;;;;;5045094;28;20049;-85
2021/12/21 14:37:07;;;;;;;17.85;13.38;;;;;;;;;;5026074;28;20043;-85
2021/12/21 14:39:33;;;;;;;16.70;14.07;;;;;;;;;;5028309;28;20091;-85
2021/12/21 14:42:00;;;;;;;19.35;15.65;;;;;;;;;;5027960;28;20041;-85
2021/12/21 14:44:27;;;;;;;16.50;13.68;;;;;;;;;;5044085;28;20044;-85
2021/12/21 14:46:55;;;;;;;14.57;12.80;;;;;;;;;;5044641;28;20037;-85
2021/12/21 14:49:35;;;;;;;17.08;15.27;;;;;;;;;;5027763;28;20411;-85
2021/12/21 14:52:08;;;;;;;18.80;14.57;;;;;;;;;;5042156;28;20049;-85
2021/12/21 14:54:53;;;;;;;16.20;13.68;;;;;;;;;;5043164;28;20127;-85
2021/12/21 14:57:28;;;;;;;18.65;15.15;;;;;;;;;;5029404;28;20074;-85
2021/12/21 14:59:54;;;;;;;17.48;14.77;;;;;;;;;;5048070;28;20032;-86
2021/12/21 15:02:48;;;;;;;20.45;16.63;;;;;;;;;;5031664;28;20036;-84
2021/12/21 15:05:10;;;;;;;25.00;18.92;;;;;;;;;;5046594;28;20045;-84
2021/12/21 15:07:36;;;;;;;25.60;18.02;;;;;;;;;;5029343;28;20041;-85
2021/12/21 15:10:05;;;;;;;22.30;18.10;;;;;;;;;;5027605;28;20067;-86
2021/12/21 15:12:31;;;;;;;22.42;18.35;;;;;;;;;;5042471;28;20064;-84
2021/12/21 15:14:57;;;;;;;20.33;17.83;;;;;;;;;;5043445;28;20045;-84
2021/12/21 15:17:23;;;;;;;23.13;18.27;;;;;;;;;;5028262;28;20124;-85
2021/12/21 15:19:49;;;;;;;19.00;16.77;;;;;;;;;;5042455;28;20511;-84
2021/12/21 15:22:15;;;;;;;19.38;16.33;;;;;;;;;;5041316;28;20071;-85
2021/12/21 15:24:41;;;;;;;20.08;16.73;;;;;;;;;;5044588;28;20060;-84
2021/12/21 15:27:07;;;;;;;24.90;18.80;;;;;;;;;;5024839;28;20531;-84
2021/12/21 15:29:34;;;;;;;25.45;19.42;;;;;;;;;;5023917;28;20041;-84
2021/12/21 15:32:00;;;;;;;20.33;15.70;;;;;;;;;;5024727;28;20475;-84
2021/12/21 15:34:26;;;;;;;24.90;19.33;;;;;;;;;;5042065;28;20080;-84
2021/12/21 15:36:52;;;;;;;20.80;18.08;;;;;;;;;;5023599;28;20076;-81
2021/12/21 15:39:21;;;;;;;27.92;20.20;;;;;;;;;;5042832;28;20502;-86
2021/12/21 15:41:48;;;;;;;28.23;19.83;;;;;;;;;;5024904;28;20111;-86
2021/12/21 15:44:16;;;;;;;25.15;18.75;;;;;;;;;;5041294;28;20127;-86
2021/12/21 15:46:43;;;;;;;25.92;19.00;;;;;;;;;;5029060;28;20103;-85
2021/12/21 15:49:09;;;;;;;22.55;19.88;;;;;;;;;;5056053;28;20040;-88